createdAt,value
2022-08-25T00:00:22.549Z,21.17
2022-08-25T00:02:56.475Z,21.17
2022-08-25T00:05:33.416Z,21.15
2022-08-25T00:08:03.575Z,21.13
2022-08-25T00:10:32.637Z,21.10
2022-08-25T00:13:02.030Z,21.10
2022-08-25T00:15:32.692Z,21.10
2022-08-25T00:18:01.974Z,21.07
2022-08-25T00:20:32.467Z,21.04
2022-08-25T00:23:01.898Z,21.03
2022-08-25T00:25:30.429Z,21.01
2022-08-25T00:27:59.457Z,20.94
2022-08-25T00:30:28.014Z,20.97
2022-08-25T00:32:57.572Z,20.99
2022-08-25T00:35:27.802Z,21.00
2022-08-25T00:37:58.130Z,20.99
2022-08-25T00:40:29.341Z,20.96
2022-08-25T00:42:58.400Z,20.88
2022-08-25T00:45:27.091Z,20.82
2022-08-25T00:47:56.608Z,20.80
2022-08-25T00:50:30.681Z,20.71
2022-08-25T00:53:07.180Z,20.68
2022-08-25T00:55:40.672Z,20.63
2022-08-25T00:58:14.869Z,20.55
2022-08-25T01:00:47.788Z,20.49
2022-08-25T01:03:18.652Z,20.52
2022-08-25T01:05:48.051Z,20.50
2022-08-25T01:08:21.742Z,20.42
2022-08-25T01:10:52.268Z,20.37
2022-08-25T01:13:25.684Z,20.33
2022-08-25T01:15:57.703Z,20.29
2022-08-25T01:18:28.089Z,20.35
2022-08-25T01:21:00.126Z,20.44
2022-08-25T01:23:29.579Z,20.48
2022-08-25T01:26:03.549Z,20.54
2022-08-25T01:28:33.288Z,20.47
2022-08-25T01:31:02.299Z,20.43
2022-08-25T01:33:30.969Z,20.46
2022-08-25T01:36:00.931Z,20.48
2022-08-25T01:38:29.710Z,20.50
2022-08-25T01:40:58.340Z,20.48
2022-08-25T01:43:37.283Z,20.49
2022-08-25T01:46:06.597Z,20.50
2022-08-25T01:48:35.611Z,20.50
2022-08-25T01:51:05.861Z,20.52
2022-08-25T01:53:35.043Z,20.48
2022-08-25T01:56:11.809Z,20.49
2022-08-25T01:58:44.189Z,20.47
2022-08-25T02:01:16.317Z,20.46
2022-08-25T02:03:49.391Z,20.45
2022-08-25T02:06:28.863Z,20.47
2022-08-25T02:09:01.263Z,20.44
2022-08-25T02:11:31.154Z,20.43
2022-08-25T02:14:00.880Z,20.44
2022-08-25T02:16:33.554Z,20.44
2022-08-25T02:19:03.451Z,20.45
2022-08-25T02:21:34.642Z,20.43
2022-08-25T02:24:05.232Z,20.38
2022-08-25T02:26:34.433Z,20.41
2022-08-25T02:29:03.083Z,20.41
2022-08-25T02:31:31.852Z,20.38
2022-08-25T02:34:02.685Z,20.38
2022-08-25T02:36:33.545Z,20.40
2022-08-25T02:39:02.610Z,20.38
2022-08-25T02:41:34.454Z,20.37
2022-08-25T02:44:05.542Z,20.36
2022-08-25T02:46:34.474Z,20.37
2022-08-25T02:49:03.333Z,20.36
2022-08-25T02:51:34.636Z,20.35
2022-08-25T02:54:05.472Z,20.32
2022-08-25T02:56:35.514Z,20.28
2022-08-25T02:59:04.461Z,20.25
2022-08-25T03:01:33.894Z,20.28
2022-08-25T03:04:03.562Z,20.29
2022-08-25T03:06:33.430Z,20.30
2022-08-25T03:09:02.104Z,20.31
2022-08-25T03:11:31.883Z,20.33
2022-08-25T03:14:00.653Z,20.32
2022-08-25T03:16:29.842Z,20.30
2022-08-25T03:18:59.625Z,20.31
2022-08-25T03:21:30.865Z,20.30
2022-08-25T03:24:01.779Z,20.30
2022-08-25T03:26:40.191Z,20.31
2022-08-25T03:29:10.922Z,20.33
2022-08-25T03:31:41.081Z,20.32
2022-08-25T03:34:09.862Z,20.34
2022-08-25T03:36:38.873Z,20.35
2022-08-25T03:39:09.092Z,20.33
2022-08-25T03:41:37.781Z,20.32
2022-08-25T03:44:10.203Z,20.28
2022-08-25T03:46:42.320Z,20.29
2022-08-25T03:49:13.445Z,20.27
2022-08-25T03:51:45.723Z,20.31
2022-08-25T03:54:17.314Z,20.32
2022-08-25T03:56:46.006Z,20.33
2022-08-25T03:59:14.864Z,20.36
2022-08-25T04:01:46.094Z,20.38
2022-08-25T04:04:16.642Z,20.37
2022-08-25T04:06:47.606Z,20.39
2022-08-25T04:09:17.658Z,20.40
2022-08-25T04:11:46.663Z,20.42
2022-08-25T04:14:17.944Z,20.42
2022-08-25T04:16:47.418Z,20.44
2022-08-25T04:19:15.782Z,20.45
2022-08-25T04:21:44.512Z,20.47
2022-08-25T04:24:15.033Z,20.51
2022-08-25T04:26:47.624Z,20.51
2022-08-25T04:29:18.432Z,20.48
2022-08-25T04:31:51.018Z,20.48
2022-08-25T04:34:30.793Z,20.49
2022-08-25T04:37:03.089Z,20.51
2022-08-25T04:39:32.344Z,20.52
2022-08-25T04:42:02.988Z,20.51
2022-08-25T04:44:32.336Z,20.58
2022-08-25T04:47:01.517Z,20.63
2022-08-25T04:49:30.408Z,20.65
2022-08-25T04:51:59.438Z,20.66
2022-08-25T04:54:28.439Z,20.65
2022-08-25T04:56:58.344Z,20.65
2022-08-25T04:59:30.406Z,20.67
2022-08-25T05:02:02.928Z,20.68
2022-08-25T05:04:33.436Z,20.72
2022-08-25T05:07:03.257Z,20.75
2022-08-25T05:09:33.010Z,20.74
2022-08-25T05:12:03.112Z,20.76
2022-08-25T05:14:34.146Z,20.73
2022-08-25T05:17:04.405Z,20.75
2022-08-25T05:19:32.966Z,20.74
2022-08-25T05:22:01.688Z,20.76
2022-08-25T05:24:31.038Z,20.78
2022-08-25T05:26:59.640Z,20.83
2022-08-25T05:29:28.336Z,20.85
2022-08-25T05:31:58.530Z,20.91
2022-08-25T05:34:27.259Z,20.93
2022-08-25T05:36:57.708Z,20.95
2022-08-25T05:39:26.992Z,20.96
2022-08-25T05:41:55.829Z,21.00
2022-08-25T05:44:24.617Z,21.05
2022-08-25T05:46:53.119Z,21.11
2022-08-25T05:49:23.180Z,21.14
2022-08-25T05:51:51.848Z,21.21
2022-08-25T05:54:21.217Z,21.26
2022-08-25T05:56:49.830Z,21.34
2022-08-25T05:59:18.738Z,21.47
2022-08-25T06:01:57.449Z,21.70
2022-08-25T06:04:27.697Z,21.84
2022-08-25T06:06:56.317Z,21.99
2022-08-25T06:09:25.258Z,22.07
2022-08-25T06:11:55.364Z,22.18
2022-08-25T06:14:25.236Z,22.26
2022-08-25T06:16:54.259Z,22.31
2022-08-25T06:19:23.702Z,22.43
2022-08-25T06:21:56.781Z,22.58
2022-08-25T06:24:27.337Z,22.65
2022-08-25T06:26:56.561Z,22.73
2022-08-25T06:29:25.344Z,22.82
2022-08-25T06:31:54.280Z,22.95
2022-08-25T06:34:23.971Z,23.08
2022-08-25T06:36:55.834Z,23.20
2022-08-25T06:39:24.522Z,23.34
2022-08-25T06:41:54.255Z,23.41
2022-08-25T06:44:23.123Z,23.56
2022-08-25T06:46:52.436Z,23.68
2022-08-25T06:49:20.926Z,23.69
2022-08-25T06:51:49.775Z,23.77
2022-08-25T06:54:20.646Z,23.90
2022-08-25T06:56:49.956Z,24.00
2022-08-25T06:59:18.963Z,24.12
2022-08-25T07:01:49.601Z,24.15
2022-08-25T07:04:19.101Z,24.17
2022-08-25T07:06:48.347Z,24.22
2022-08-25T07:09:17.155Z,24.31
2022-08-25T07:11:47.501Z,24.46
2022-08-25T07:14:18.852Z,24.56
2022-08-25T07:16:50.310Z,24.61
2022-08-25T07:19:21.954Z,24.67
2022-08-25T07:21:54.406Z,24.75
2022-08-25T07:24:23.950Z,24.81
2022-08-25T07:26:54.674Z,24.88
2022-08-25T07:29:31.849Z,24.91
2022-08-25T07:32:02.812Z,25.02
2022-08-25T07:34:41.450Z,25.07
2022-08-25T07:37:23.596Z,25.18
2022-08-25T07:40:05.212Z,25.21
2022-08-25T07:42:36.335Z,25.22
2022-08-25T07:45:08.063Z,25.34
2022-08-25T07:47:37.261Z,25.47
2022-08-25T07:50:07.445Z,25.52
2022-08-25T07:52:36.278Z,25.55
2022-08-25T07:55:10.904Z,25.62
2022-08-25T07:57:42.775Z,25.66
2022-08-25T08:00:14.527Z,25.80
2022-08-25T08:02:44.287Z,25.83
2022-08-25T08:05:14.784Z,25.95
2022-08-25T08:07:43.974Z,26.01
2022-08-25T08:13:07.705Z,26.14
2022-08-25T08:15:36.943Z,26.21
2022-08-25T08:18:07.148Z,26.32
2022-08-25T08:20:42.787Z,26.47
2022-08-25T08:23:13.298Z,26.58
2022-08-25T08:25:42.155Z,26.67
2022-08-25T08:28:12.278Z,26.70
2022-08-25T08:30:52.858Z,26.75
2022-08-25T08:33:25.599Z,26.78
2022-08-25T08:36:05.036Z,26.72
2022-08-25T08:38:35.378Z,26.82
2022-08-25T08:42:07.141Z,27.01
2022-08-25T08:44:44.509Z,27.24
2022-08-25T08:47:22.430Z,27.31
2022-08-25T08:50:01.447Z,27.36
2022-08-25T08:52:43.456Z,27.47
2022-08-25T08:55:19.688Z,27.63
2022-08-25T08:57:51.957Z,27.66
2022-08-25T09:00:22.109Z,27.73
2022-08-25T09:03:00.133Z,27.77
2022-08-25T09:05:35.775Z,27.78
2022-08-25T09:08:11.331Z,27.69
2022-08-25T09:10:55.567Z,27.58
2022-08-25T09:13:34.357Z,27.73
2022-08-25T09:16:33.762Z,27.83
2022-08-25T09:19:21.213Z,27.89
2022-08-25T09:21:59.414Z,28.11
2022-08-25T09:24:45.505Z,28.23
2022-08-25T09:27:33.465Z,28.24
2022-08-25T09:30:07.270Z,28.38
2022-08-25T09:32:50.393Z,28.40
2022-08-25T09:35:26.364Z,28.45
2022-08-25T09:38:00.174Z,28.53
2022-08-25T09:40:29.748Z,28.51
2022-08-25T09:43:01.617Z,28.41
2022-08-25T09:45:43.758Z,28.33
2022-08-25T09:48:26.132Z,28.45
2022-08-25T09:50:59.507Z,28.74
2022-08-25T09:53:29.857Z,28.85
2022-08-25T09:56:07.059Z,28.85
2022-08-25T09:58:36.174Z,28.93
2022-08-25T10:01:15.709Z,28.93
2022-08-25T10:04:13.918Z,28.97
2022-08-25T10:06:49.255Z,29.14
2022-08-25T10:09:30.773Z,29.26
2022-08-25T10:12:05.325Z,29.12
2022-08-25T10:14:38.905Z,28.97
2022-08-25T10:17:17.557Z,29.03
2022-08-25T10:19:47.537Z,29.15
2022-08-25T10:22:27.470Z,29.27
2022-08-25T10:24:56.427Z,29.46
2022-08-25T10:27:36.134Z,29.47
2022-08-25T10:30:19.320Z,29.53
2022-08-25T10:33:10.462Z,29.59
2022-08-25T10:35:53.719Z,29.50
2022-08-25T10:38:38.608Z,29.50
2022-08-25T10:41:39.176Z,29.49
2022-08-25T10:44:29.085Z,29.68
2022-08-25T10:47:12.799Z,29.84
2022-08-25T10:49:47.478Z,29.88
2022-08-25T10:52:31.849Z,30.02
2022-08-25T10:55:09.291Z,30.24
2022-08-25T10:57:46.875Z,30.18
2022-08-25T11:00:19.357Z,30.15
2022-08-25T11:03:03.870Z,29.93
2022-08-25T11:05:41.749Z,29.98
2022-08-25T11:08:18.767Z,30.11
2022-08-25T11:10:53.570Z,30.09
2022-08-25T11:13:28.477Z,30.15
2022-08-25T11:16:20.327Z,30.28
2022-08-25T11:18:57.687Z,30.20
2022-08-25T11:21:35.912Z,30.36
2022-08-25T11:24:20.417Z,30.56
2022-08-25T11:26:57.058Z,30.69
2022-08-25T11:29:31.205Z,30.59
2022-08-25T11:32:02.146Z,30.60
2022-08-25T11:34:34.462Z,30.68
2022-08-25T11:37:11.233Z,30.88
2022-08-25T11:40:13.844Z,30.80
2022-08-25T11:43:01.169Z,30.97
2022-08-25T11:45:55.639Z,31.11
2022-08-25T11:48:37.041Z,31.24
2022-08-25T11:51:09.515Z,31.44
2022-08-25T11:53:41.823Z,31.38
2022-08-25T11:56:15.148Z,31.22
2022-08-25T11:58:50.311Z,31.05
2022-08-25T12:01:43.520Z,31.17
2022-08-25T12:04:17.103Z,31.16
2022-08-25T12:07:20.878Z,31.10
2022-08-25T12:10:14.228Z,31.06
2022-08-25T12:13:04.757Z,31.02
2022-08-25T12:15:58.796Z,30.95
2022-08-25T12:18:45.730Z,30.87
2022-08-25T12:21:31.586Z,30.94
2022-08-25T12:24:17.645Z,31.11
2022-08-25T12:27:06.239Z,31.25
2022-08-25T12:29:43.382Z,31.51
2022-08-25T12:32:28.591Z,31.57
2022-08-25T12:35:22.974Z,31.51
2022-08-25T12:37:58.804Z,31.39
2022-08-25T12:40:33.645Z,31.58
2022-08-25T12:43:06.601Z,31.76
2022-08-25T12:45:46.143Z,31.64
2022-08-25T12:48:36.542Z,31.51
2022-08-25T12:51:12.011Z,31.47
2022-08-25T12:53:43.280Z,31.33
2022-08-25T12:56:23.654Z,31.36
2022-08-25T12:59:04.954Z,31.56
2022-08-25T13:01:44.955Z,31.74
2022-08-25T13:04:36.604Z,31.89
2022-08-25T13:07:18.005Z,31.86
2022-08-25T13:10:15.244Z,31.88
2022-08-25T13:12:50.521Z,31.77
2022-08-25T13:15:30.103Z,31.86
2022-08-25T13:18:15.462Z,31.92
2022-08-25T13:20:47.154Z,32.05
2022-08-25T13:23:25.240Z,32.22
2022-08-25T13:25:58.346Z,32.23
2022-08-25T13:28:33.244Z,32.25
2022-08-25T13:31:08.467Z,32.27
2022-08-25T13:33:39.852Z,32.32
2022-08-25T13:36:18.886Z,32.31
2022-08-25T13:38:49.719Z,32.03
2022-08-25T13:41:29.347Z,31.98
2022-08-25T13:44:01.885Z,32.03
2022-08-25T13:46:32.051Z,31.97
2022-08-25T13:49:08.816Z,31.96
2022-08-25T13:51:39.835Z,31.96
2022-08-25T13:54:25.764Z,32.04
2022-08-25T13:56:55.183Z,31.92
2022-08-25T13:59:27.681Z,31.73
2022-08-25T14:01:57.118Z,31.57
2022-08-25T14:04:33.195Z,31.62
2022-08-25T14:07:26.845Z,31.54
2022-08-25T14:10:09.935Z,31.52
2022-08-25T14:12:44.668Z,31.46
2022-08-25T14:15:32.553Z,31.58
2022-08-25T14:18:06.168Z,31.50
2022-08-25T14:20:37.647Z,31.41
2022-08-25T14:23:18.951Z,31.42
2022-08-25T14:25:51.425Z,31.48
2022-08-25T14:28:23.854Z,31.45
2022-08-25T14:30:58.712Z,31.59
2022-08-25T14:33:32.171Z,31.63
2022-08-25T14:36:05.381Z,31.61
2022-08-25T14:38:35.403Z,31.60
2022-08-25T14:43:39.582Z,31.48
2022-08-25T14:46:15.875Z,31.33
2022-08-25T14:48:47.186Z,31.27
2022-08-25T14:51:18.333Z,31.17
2022-08-25T14:53:47.331Z,31.07
2022-08-25T14:56:17.293Z,31.06
2022-08-25T14:58:50.875Z,31.12
2022-08-25T15:01:29.148Z,31.25
2022-08-25T15:04:04.340Z,31.25
2022-08-25T15:06:35.246Z,31.26
2022-08-25T15:09:10.962Z,31.20
2022-08-25T15:11:43.741Z,31.25
2022-08-25T15:14:15.742Z,31.12
2022-08-25T15:16:50.686Z,30.94
2022-08-25T15:19:23.640Z,30.93
2022-08-25T15:21:53.368Z,30.88
2022-08-25T15:24:25.786Z,30.86
2022-08-25T15:26:59.130Z,30.86
2022-08-25T15:29:30.277Z,30.85
2022-08-25T15:32:00.323Z,30.70
2022-08-25T15:34:29.192Z,30.59
2022-08-25T15:36:58.473Z,30.58
2022-08-25T15:39:28.211Z,30.52
2022-08-25T15:41:57.953Z,30.44
2022-08-25T15:44:29.672Z,30.31
2022-08-25T15:46:59.723Z,30.07
2022-08-25T15:49:31.458Z,30.00
2022-08-25T15:52:00.882Z,30.00
2022-08-25T15:54:30.433Z,29.88
2022-08-25T15:57:01.154Z,29.75
2022-08-25T15:59:30.751Z,29.58
2022-08-25T16:02:00.598Z,29.53
2022-08-25T16:04:30.684Z,29.49
2022-08-25T16:07:01.816Z,29.37
2022-08-25T16:09:33.193Z,29.27
2022-08-25T16:12:06.672Z,29.18
2022-08-25T16:14:38.885Z,29.12
2022-08-25T16:17:07.804Z,29.05
2022-08-25T16:19:38.215Z,28.94
2022-08-25T16:22:08.928Z,28.80
2022-08-25T16:24:40.234Z,28.77
2022-08-25T16:27:13.135Z,28.69
2022-08-25T16:29:43.998Z,28.65
2022-08-25T16:32:13.991Z,28.56
2022-08-25T16:34:44.375Z,28.45
2022-08-25T16:37:13.883Z,28.34
2022-08-25T16:39:46.161Z,28.24
2022-08-25T16:42:16.733Z,28.11
2022-08-25T16:44:45.384Z,28.00
2022-08-25T16:47:17.598Z,27.92
2022-08-25T16:49:50.004Z,27.86
2022-08-25T16:52:28.757Z,27.82
2022-08-25T16:55:08.168Z,27.76
2022-08-25T16:57:38.315Z,27.68
2022-08-25T17:00:11.083Z,27.63
2022-08-25T17:02:40.533Z,27.55
2022-08-25T17:05:09.862Z,27.46
2022-08-25T17:07:38.922Z,27.37
2022-08-25T17:10:12.818Z,27.32
2022-08-25T17:12:43.425Z,27.25
2022-08-25T17:15:12.403Z,27.21
2022-08-25T17:17:41.777Z,27.13
2022-08-25T17:20:11.128Z,27.04
2022-08-25T17:22:39.815Z,26.94
2022-08-25T17:25:09.204Z,26.91
2022-08-25T17:27:38.314Z,26.84
2022-08-25T17:30:11.412Z,26.77
2022-08-25T17:32:40.185Z,26.67
2022-08-25T17:35:10.574Z,26.60
2022-08-25T17:37:43.743Z,26.50
2022-08-25T17:40:18.696Z,26.41
2022-08-25T17:42:47.383Z,26.33
2022-08-25T17:45:17.645Z,26.22
2022-08-25T17:47:46.327Z,26.12
2022-08-25T17:50:15.164Z,26.04
2022-08-25T17:52:46.254Z,25.98
2022-08-25T17:55:14.995Z,25.93
2022-08-25T17:57:44.393Z,25.83
2022-08-25T18:00:14.673Z,25.76
2022-08-25T18:02:45.168Z,25.65
2022-08-25T18:05:15.603Z,25.57
2022-08-25T18:07:44.737Z,25.52
2022-08-25T18:10:13.886Z,25.46
2022-08-25T18:12:42.652Z,25.41
2022-08-25T18:15:12.693Z,25.38
2022-08-25T18:17:45.321Z,25.29
2022-08-25T18:20:15.587Z,25.20
2022-08-25T18:22:47.078Z,25.14
2022-08-25T18:25:16.884Z,25.09
2022-08-25T18:27:45.509Z,25.04
2022-08-25T18:30:14.478Z,25.04
2022-08-25T18:32:44.528Z,25.00
2022-08-25T18:35:13.645Z,24.97
2022-08-25T18:37:52.207Z,24.91
2022-08-25T18:40:28.188Z,24.91
2022-08-25T18:42:59.406Z,24.89
2022-08-25T18:45:31.558Z,24.87
2022-08-25T18:48:02.470Z,24.84
2022-08-25T18:50:36.030Z,24.85
2022-08-25T18:53:06.224Z,24.85
2022-08-25T18:55:35.894Z,24.80
2022-08-25T18:58:05.983Z,24.73
2022-08-25T19:00:36.060Z,24.71
2022-08-25T19:03:06.355Z,24.66
2022-08-25T19:05:43.112Z,24.63
2022-08-25T19:08:17.271Z,24.63
2022-08-25T19:10:52.130Z,24.63
2022-08-25T19:13:22.648Z,24.64
2022-08-25T19:15:53.133Z,24.54
2022-08-25T19:18:28.883Z,24.47
2022-08-25T19:20:59.133Z,24.43
2022-08-25T19:23:28.820Z,24.37
2022-08-25T19:25:58.119Z,24.28
2022-08-25T19:28:26.692Z,24.17
2022-08-25T19:30:56.148Z,24.08
2022-08-25T19:33:42.827Z,24.06
2022-08-25T19:36:14.201Z,24.05
2022-08-25T19:38:44.830Z,24.05
2022-08-25T19:41:15.015Z,24.06
2022-08-25T19:43:55.078Z,24.04
2022-08-25T19:46:32.231Z,24.06
2022-08-25T19:49:08.924Z,24.07
2022-08-25T19:51:40.110Z,24.10
2022-08-25T19:54:13.352Z,24.04
2022-08-25T19:56:54.231Z,24.10
2022-08-25T19:59:40.467Z,24.12
2022-08-25T20:02:15.795Z,24.18
2022-08-25T20:04:49.580Z,24.24
2022-08-25T20:07:23.664Z,24.29
2022-08-25T20:09:54.446Z,24.31
2022-08-25T20:12:24.909Z,24.32
2022-08-25T20:14:54.860Z,24.32
2022-08-25T20:17:28.306Z,24.31
2022-08-25T20:20:01.687Z,24.28
2022-08-25T20:22:34.667Z,24.24
2022-08-25T20:25:13.131Z,24.22
2022-08-25T20:27:45.086Z,24.13
2022-08-25T20:30:22.496Z,24.04
2022-08-25T20:32:52.014Z,23.98
2022-08-25T20:35:24.792Z,23.92
2022-08-25T20:37:56.674Z,23.87
2022-08-25T20:40:28.178Z,23.81
2022-08-25T20:42:58.228Z,23.76
2022-08-25T20:45:28.225Z,23.65
2022-08-25T20:47:56.916Z,23.61
2022-08-25T20:50:28.569Z,23.58
2022-08-25T20:52:59.067Z,23.52
2022-08-25T20:55:29.927Z,23.60
2022-08-25T20:57:58.565Z,23.61
2022-08-25T21:00:27.236Z,23.58
2022-08-25T21:02:56.896Z,23.54
2022-08-25T21:05:27.129Z,23.54
2022-08-25T21:07:56.025Z,23.55
2022-08-25T21:10:25.805Z,23.51
2022-08-25T21:12:54.549Z,23.49
2022-08-25T21:15:23.329Z,23.48
2022-08-25T21:17:54.287Z,23.48
2022-08-25T21:20:24.321Z,23.48
2022-08-25T21:22:54.756Z,23.42
2022-08-25T21:25:23.609Z,23.38
2022-08-25T21:27:52.180Z,23.39
2022-08-25T21:30:21.321Z,23.37
2022-08-25T21:32:53.520Z,23.30
2022-08-25T21:35:23.761Z,23.16
2022-08-25T21:37:55.109Z,23.09
2022-08-25T21:40:24.552Z,23.08
2022-08-25T21:42:53.617Z,23.01
2022-08-25T21:45:22.370Z,22.93
2022-08-25T21:47:51.755Z,22.91
2022-08-25T21:50:22.401Z,22.93
2022-08-25T21:52:54.872Z,22.94
2022-08-25T21:55:25.269Z,22.94
2022-08-25T21:57:54.938Z,22.93
2022-08-25T22:00:24.388Z,22.94
2022-08-25T22:02:53.058Z,22.93
2022-08-25T22:05:21.798Z,22.89
2022-08-25T22:07:50.466Z,22.90
2022-08-25T22:10:22.526Z,22.89
2022-08-25T22:12:53.589Z,22.81
2022-08-25T22:15:23.550Z,22.65
2022-08-25T22:17:52.248Z,22.63
2022-08-25T22:20:21.032Z,22.59
2022-08-25T22:22:49.630Z,22.56
2022-08-25T22:25:18.682Z,22.51
2022-08-25T22:27:52.022Z,22.47
2022-08-25T22:30:29.444Z,22.50
2022-08-25T22:32:59.804Z,22.56
2022-08-25T22:35:29.663Z,22.58
2022-08-25T22:37:58.154Z,22.60
2022-08-25T22:40:27.035Z,22.62
2022-08-25T22:42:57.863Z,22.64
2022-08-25T22:45:29.186Z,22.63
2022-08-25T22:47:58.420Z,22.61
2022-08-25T22:50:27.678Z,22.59
2022-08-25T22:52:56.688Z,22.51
2022-08-25T22:55:25.319Z,22.50
2022-08-25T22:57:56.923Z,22.51
2022-08-25T23:00:25.602Z,22.50
2022-08-25T23:02:56.323Z,22.52
2022-08-25T23:05:25.042Z,22.48
2022-08-25T23:07:53.731Z,22.47
2022-08-25T23:10:22.983Z,22.41
2022-08-25T23:12:51.802Z,22.35
2022-08-25T23:15:20.751Z,22.32
2022-08-25T23:17:50.190Z,22.27
2022-08-25T23:20:30.148Z,22.21
2022-08-25T23:22:59.330Z,22.10
2022-08-25T23:25:28.140Z,22.06
2022-08-25T23:27:57.169Z,22.07
2022-08-25T23:30:27.264Z,22.10
2022-08-25T23:32:57.270Z,22.13
2022-08-25T23:35:27.288Z,22.17
2022-08-25T23:37:59.559Z,22.20
2022-08-25T23:40:28.208Z,22.18
2022-08-25T23:42:56.843Z,22.15
2022-08-25T23:45:25.779Z,22.16
2022-08-25T23:47:54.410Z,22.20
2022-08-25T23:50:23.152Z,22.21
2022-08-25T23:52:55.116Z,22.23
2022-08-25T23:55:24.232Z,22.24
2022-08-25T23:57:56.302Z,22.24
